Time;durP1;ratioP1;P1;durP2;ratioP2;P2;SDS_P1;SDS_P2;PMS_P1;PMS_P2;Temp;Humidity;BMP_temperature;BMP_pressure;BME280_temperature;BME280_humidity;BME280_pressure;Samples;Min_cycle;Max_cycle;Signal;HPM_P1;HPM_P2
2023/01/11 00:00:55;;;;;;;1.17;0.88;;;;;;;5.75;99.75;100438.47;9904515;29;20086;-88
2023/01/11 00:05:58;;;;;;;2.33;1.05;;;;;;;5.80;99.88;100427.41;9915307;29;20149;-87
2023/01/11 00:11:01;;;;;;;1.73;1.23;;;;;;;5.86;99.98;100420.63;9912530;29;20584;-88
2023/01/11 00:16:16;;;;;;;2.10;1.23;;;;;;;5.92;99.94;100407.81;9926640;29;20055;-88
2023/01/11 00:21:31;;;;;;;7.78;6.22;;;;;;;6.00;100.00;100407.25;9925657;29;20572;-91
2023/01/11 00:26:33;;;;;;;2.10;1.50;;;;;;;6.08;100.00;100384.09;9912908;29;20539;-85
2023/01/11 00:31:37;;;;;;;1.50;1.10;;;;;;;6.13;100.00;100389.41;9917176;29;20126;-85
2023/01/11 00:36:45;;;;;;;0.90;0.77;;;;;;;6.16;100.00;100374.78;9933460;29;20058;-87
2023/01/11 00:52:54;;;;;;;3.60;1.65;;;;;;;6.37;100.00;100378.81;9932601;29;20051;-88
2023/01/11 01:16:52;;;;;;;0.63;0.50;;;;;;;6.69;100.00;100342.38;9941739;29;19932;-88
2023/01/11 01:29:32;;;;;;;0.50;0.50;;;;;;;6.73;100.00;100331.22;9909147;29;20056;-89
2023/01/11 01:35:15;;;;;;;0.77;0.60;;;;;;;6.78;100.00;100329.59;9936439;29;20470;-87
2023/01/11 01:41:08;;;;;;;0.73;0.73;;;;;;;6.84;100.00;100334.06;9902056;29;20232;-88
2023/01/11 01:47:12;;;;;;;1.05;0.93;;;;;;;6.88;100.00;100320.31;9906537;29;20573;-87
2023/01/11 01:53:37;;;;;;;0.45;0.45;;;;;;;6.92;100.00;100303.94;9925203;29;20514;-87
2023/01/11 02:12:08;;;;;;;0.70;0.52;;;;;;;-147.53;100.00;57128.34;9932110;29;20054;-87
2023/01/11 02:18:11;;;;;;;0.50;0.50;;;;;;;7.06;100.00;100296.44;9834869;30;20055;-88
2023/01/11 02:24:02;;;;;;;1.20;0.80;;;;;;;7.33;100.00;100309.22;9843541;29;20105;-87
2023/01/11 02:30:13;;;;;;;;;;;;;;;;;;;;;
2023/01/11 02:56:28;;;;;;;0.52;0.50;;;;;;;7.63;100.00;100275.94;9949671;29;20050;-87
2023/01/11 03:10:07;;;;;;;0.93;0.80;;;;;;;7.68;100.00;100274.34;9856428;29;20052;-87
2023/01/11 03:15:46;;;;;;;1.67;0.98;;;;;;;7.71;100.00;100258.75;9893715;29;20050;-86
2023/01/11 03:20:57;;;;;;;;;;;;;;;7.77;100.00;100249.31;9990612;24;20059;-87
2023/01/11 03:26:33;;;;;;;0.82;0.73;;;;;;;7.78;100.00;100258.03;9924266;29;19925;-85
2023/01/11 03:31:34;;;;;;;0.52;0.52;;;;;;;7.79;100.00;100260.69;9919749;29;20082;-84
2023/01/11 03:36:59;;;;;;;0.65;0.52;;;;;;;7.80;100.00;100261.56;9903532;29;20089;-84
2023/01/11 03:42:04;;;;;;;0.70;0.70;;;;;;;7.82;100.00;100264.19;9888974;29;20526;-85
2023/01/11 03:47:11;;;;;;;0.40;0.40;;;;;;;7.84;100.00;100265.97;9890250;29;20097;-84
2023/01/11 03:52:16;;;;;;;0.30;0.30;;;;;;;7.85;100.00;100267.75;9897744;29;20592;-84
2023/01/11 03:57:24;;;;;;;0.68;0.68;;;;;;;7.86;100.00;100263.41;9904162;29;20059;-84
2023/01/11 04:02:33;;;;;;;1.33;0.65;;;;;;;7.84;100.00;100263.38;9919628;29;20055;-85
2023/01/11 04:07:35;;;;;;;0.70;0.70;;;;;;;7.88;100.00;100260.00;9896172;29;20141;-83
2023/01/11 04:12:37;;;;;;;0.63;0.63;;;;;;;7.92;100.00;100263.53;9889433;29;20485;-85
2023/01/11 04:17:38;;;;;;;0.85;0.65;;;;;;;7.99;100.00;100259.28;9889966;29;20063;-84
2023/01/11 04:22:40;;;;;;;0.17;0.17;;;;;;;8.01;100.00;100252.41;9917648;29;20051;-84
2023/01/11 04:27:42;;;;;;;0.90;0.50;;;;;;;8.05;100.00;100246.41;9881223;29;20059;-85
2023/01/11 04:32:43;;;;;;;0.40;0.40;;;;;;;8.07;100.00;100252.50;9890492;29;20505;-85
2023/01/11 04:37:46;;;;;;;0.35;0.30;;;;;;;8.17;100.00;100257.06;9896896;29;20471;-84
2023/01/11 04:42:48;;;;;;;0.47;0.38;;;;;;;8.21;100.00;100256.25;9888720;29;20126;-85
2023/01/11 04:47:57;;;;;;;0.50;0.50;;;;;;;8.22;100.00;100258.00;9889572;29;20081;-83
2023/01/11 04:52:58;;;;;;;1.08;0.68;;;;;;;8.30;100.00;100266.84;9887756;29;20609;-84
2023/01/11 04:58:00;;;;;;;0.57;0.52;;;;;;;8.36;100.00;100271.31;9906386;29;20130;-85
2023/01/11 05:03:02;;;;;;;0.88;0.70;;;;;;;8.41;100.00;100260.97;9901173;29;20059;-85
2023/01/11 05:08:04;;;;;;;0.73;0.65;;;;;;;8.50;100.00;100271.59;9898772;29;20058;-85
2023/01/11 05:13:05;;;;;;;0.63;0.50;;;;;;;8.53;100.00;100266.41;9888120;29;20518;-84
2023/01/11 05:18:10;;;;;;;0.50;0.47;;;;;;;8.57;100.00;100281.28;9891861;29;20058;-86
2023/01/11 05:23:12;;;;;;;0.40;0.40;;;;;;;8.62;100.00;100277.00;9923853;29;20063;-86
2023/01/11 05:28:14;;;;;;;0.70;0.70;;;;;;;8.66;100.00;100288.34;9895061;29;20743;-85
2023/01/11 05:33:16;;;;;;;0.60;0.40;;;;;;;8.70;100.00;100290.19;9898466;29;20085;-86
2023/01/11 05:38:21;;;;;;;0.50;0.50;;;;;;;8.78;100.00;100290.31;9913484;29;20548;-85
2023/01/11 05:43:33;;;;;;;0.50;0.50;;;;;;;8.74;100.00;100291.13;9918669;29;20113;-86
2023/01/11 05:48:55;;;;;;;0.70;0.57;;;;;;;8.74;100.00;100292.00;9911426;29;20055;-87
2023/01/11 05:54:12;;;;;;;0.85;0.60;;;;;;;8.74;100.00;100298.97;9923843;29;20060;-86
2023/01/11 05:59:41;;;;;;;0.60;0.60;;;;;;;8.78;100.00;100303.34;9895777;29;20143;-87
2023/01/11 06:05:17;;;;;;;1.08;0.70;;;;;;;8.76;100.00;100299.84;9873390;29;20267;-88
2023/01/11 06:10:24;;;;;;;0.47;0.47;;;;;;;8.79;100.00;100305.97;9884901;29;20051;-86
2023/01/11 06:15:50;;;;;;;;;;;;;;;;;;;;;
2023/01/11 06:32:39;;;;;;;1.13;0.68;;;;;;;8.85;100.00;100311.31;9921443;29;20106;-83
2023/01/11 06:37:41;;;;;;;1.27;0.82;;;;;;;8.83;100.00;100326.06;9892913;29;20055;-82
2023/01/11 06:42:43;;;;;;;0.70;0.57;;;;;;;8.86;100.00;100348.75;9899422;29;20059;-83
2023/01/11 06:47:44;;;;;;;1.52;1.00;;;;;;;8.83;100.00;100340.88;9887081;29;20525;-82
2023/01/11 06:52:53;;;;;;;1.50;1.02;;;;;;;8.86;100.00;100346.16;9891202;29;20051;-84
2023/01/11 06:57:55;;;;;;;1.30;0.82;;;;;;;8.88;100.00;100354.00;9890009;29;20138;-83
2023/01/11 07:03:04;;;;;;;1.23;0.93;;;;;;;8.90;100.00;100363.59;9882473;29;20658;-82
2023/01/11 07:08:09;;;;;;;1.45;0.90;;;;;;;8.91;100.00;100369.72;9912223;29;20075;-86
2023/01/11 07:13:17;;;;;;;2.08;1.23;;;;;;;8.91;100.00;100367.97;9889521;29;20126;-87
2023/01/11 07:18:30;;;;;;;1.77;1.17;;;;;;;8.93;100.00;100402.84;9887708;29;20047;-88
2023/01/11 07:23:39;;;;;;;1.10;0.55;;;;;;;8.67;100.00;100398.00;9892138;29;20062;-83
2023/01/11 07:28:40;;;;;;;0.52;0.32;;;;;;;8.51;100.00;100409.00;9923542;29;20156;-83
2023/01/11 07:33:42;;;;;;;0.20;0.20;;;;;;;8.46;100.00;100418.50;9904066;29;20067;-86
2023/01/11 07:38:46;;;;;;;0.20;0.20;;;;;;;8.43;100.00;100418.41;9881823;29;20054;-82
2023/01/11 07:43:48;;;;;;;0.10;0.10;;;;;;;8.41;100.00;100420.09;9883070;29;20047;-83
2023/01/11 07:48:50;;;;;;;0.55;0.25;;;;;;;8.38;100.00;100425.25;9889683;29;20062;-83
2023/01/11 07:53:52;;;;;;;0.77;0.40;;;;;;;8.37;100.00;100433.94;9900393;29;20328;-83
2023/01/11 07:58:53;;;;;;;3.20;1.08;;;;;;;8.37;100.00;100431.31;9890132;29;20039;-84
2023/01/11 08:03:55;;;;;;;0.10;0.10;;;;;;;8.35;100.00;100435.59;9885885;29;20050;-84
2023/01/11 08:08:57;;;;;;;0.45;0.30;;;;;;;8.29;100.00;100439.00;9915104;29;20043;-84
2023/01/11 08:19:20;;;;;;;0.10;0.10;;;;;;;8.30;100.00;100420.78;9891831;29;20048;-86
2023/01/11 08:24:47;;;;;;;0.10;0.10;;;;;;;8.28;100.00;100416.34;9893641;29;20083;-87
2023/01/11 08:30:20;;;;;;;1.52;0.47;;;;;;;8.14;100.00;100442.16;9904229;29;20050;-86
2023/01/11 09:58:34;;;;;;;0.50;0.50;;;;;;;8.90;100.00;100525.50;9885836;29;20112;-88
2023/01/11 10:05:30;;;;;;;;;;;;;;;;;;;;;
2023/01/11 10:11:50;;;;;;;2.20;0.70;;;;;;;9.00;100.00;100553.56;9886889;29;20142;-89
2023/01/11 10:24:30;;;;;;;0.30;0.30;;;;;;;9.00;100.00;100540.50;9881339;29;20221;-87
2023/01/11 10:29:56;;;;;;;1.65;0.70;;;;;;;9.00;100.00;100550.06;9894374;29;20053;-87
2023/01/11 10:41:53;;;;;;;0.55;0.47;;;;;;;9.04;100.00;100533.63;9886371;29;20154;-87
2023/01/11 10:47:08;;;;;;;1.58;1.23;;;;;;;9.03;100.00;100535.34;9927059;29;20061;-86
2023/01/11 10:52:44;;;;;;;0.75;0.50;;;;;;;9.07;100.00;100553.66;9911422;29;20063;-90
2023/01/11 10:58:17;;;;;;;0.55;0.50;;;;;;;9.03;100.00;100561.44;9916974;29;20552;-87
2023/01/11 11:03:47;;;;;;;0.30;0.30;;;;;;;8.98;100.00;100565.72;9924947;29;20132;-87
2023/01/11 11:09:06;;;;;;;2.08;0.90;;;;;;;8.87;100.00;100582.88;9908201;29;20572;-87
2023/01/11 11:14:29;;;;;;;0.30;0.30;;;;;;;8.83;99.57;100581.06;9918341;29;20525;-87
2023/01/11 11:19:39;;;;;;;0.10;0.10;;;;;;;8.70;99.17;100573.84;9913241;29;20046;-86
2023/01/11 11:25:03;;;;;;;1.27;0.85;;;;;;;8.61;98.84;100574.50;9909814;29;20094;-87
2023/01/11 11:30:10;;;;;;;0.40;0.40;;;;;;;8.55;98.46;100580.47;9916432;29;20565;-88
2023/01/11 11:35:35;;;;;;;0.30;0.30;;;;;;;8.52;98.22;100587.38;9901248;29;20094;-86
2023/01/11 11:40:37;;;;;;;1.95;0.52;;;;;;;8.52;97.74;100598.66;9931978;29;20580;-87
2023/01/11 11:45:50;;;;;;;0.75;0.70;;;;;;;8.45;97.75;100602.88;9932745;29;20050;-86
2023/01/11 11:50:58;;;;;;;0.47;0.30;;;;;;;8.45;97.22;100607.19;9922749;29;20065;-86
2023/01/11 11:56:07;;;;;;;0.20;0.20;;;;;;;8.42;96.84;100609.72;9917534;29;20119;-86
2023/01/11 12:01:19;;;;;;;5.90;0.80;;;;;;;8.39;96.29;100591.38;9937655;29;20190;-85
2023/01/11 12:06:25;;;;;;;0.82;0.47;;;;;;;8.35;96.19;100590.44;9922708;29;20055;-85
2023/01/11 12:11:34;;;;;;;0.43;0.35;;;;;;;8.48;95.74;100578.56;9926126;29;20054;-85
2023/01/11 12:16:40;;;;;;;3.25;1.15;;;;;;;8.70;95.37;100581.66;9918085;29;20058;-86
2023/01/11 12:21:42;;;;;;;0.63;0.35;;;;;;;8.89;94.94;100581.19;9923890;29;20046;-84
2023/01/11 12:27:02;;;;;;;1.00;0.50;;;;;;;8.96;94.29;100577.88;9917534;29;20066;-84
2023/01/11 12:32:38;;;;;;;0.90;0.57;;;;;;;8.91;93.70;100573.41;9931080;29;20055;-83
2023/01/11 12:37:48;;;;;;;1.50;0.93;;;;;;;8.98;93.32;100570.06;9919371;29;20379;-83
2023/01/11 12:43:36;;;;;;;1.80;0.60;;;;;;;9.23;93.17;100584.47;9926901;29;20130;-83
2023/01/11 12:48:58;;;;;;;2.85;0.63;;;;;;;9.24;92.54;100594.06;9917313;29;20042;-84
2023/01/11 12:54:29;;;;;;;0.50;0.15;;;;;;;9.08;91.92;100608.56;9920783;29;20583;-83
2023/01/11 13:00:05;;;;;;;3.03;1.45;;;;;;;8.91;91.49;100599.50;9919736;29;20299;-82
2023/01/11 13:05:26;;;;;;;0.80;0.50;;;;;;;8.80;91.39;100607.13;9931613;29;20066;-84
2023/01/11 13:10:40;;;;;;;2.72;1.00;;;;;;;8.70;91.17;100628.66;9923240;29;20476;-82
2023/01/11 13:15:50;;;;;;;0.68;0.55;;;;;;;8.72;91.01;100640.91;9921489;29;20055;-83
2023/01/11 13:21:09;;;;;;;0.85;0.77;;;;;;;8.87;90.80;100631.63;9929930;29;20062;-83
2023/01/11 13:26:33;;;;;;;1.70;0.85;;;;;;;8.82;90.23;100635.00;9931260;29;20054;-84
2023/01/11 13:31:35;;;;;;;0.40;0.40;;;;;;;8.63;89.66;100627.63;9924743;29;20082;-84
2023/01/11 13:36:41;;;;;;;0.70;0.63;;;;;;;8.43;89.02;100642.78;9928501;29;20065;-80
2023/01/11 13:41:56;;;;;;;1.10;0.55;;;;;;;8.29;88.79;100643.34;9949985;29;20055;-81
2023/01/11 13:47:11;;;;;;;1.15;0.43;;;;;;;8.24;88.52;100644.97;9927882;29;20058;-80
2023/01/11 13:52:21;;;;;;;0.47;0.43;;;;;;;8.15;88.07;100647.34;9931971;29;20556;-82
2023/01/11 13:57:38;;;;;;;2.97;0.85;;;;;;;8.03;87.65;100647.03;9933032;29;20116;-80
2023/01/11 14:02:44;;;;;;;0.57;0.50;;;;;;;7.86;87.34;100665.72;9937477;29;20130;-81
2023/01/11 14:08:01;;;;;;;0.40;0.40;;;;;;;7.83;86.92;100665.66;9915581;29;20058;-81
2023/01/11 14:19:30;;;;;;;0.38;0.38;;;;;;;7.90;86.50;100688.44;9946885;29;20066;-81
2023/01/11 14:24:36;;;;;;;0.95;0.50;;;;;;;7.77;86.83;100694.16;9930032;29;20127;-81
2023/01/11 14:29:57;;;;;;;0.28;0.28;;;;;;;7.62;86.58;100699.84;9939942;29;20051;-80
2023/01/11 14:35:33;;;;;;;1.13;0.95;;;;;;;7.64;86.61;100686.84;9931628;29;20065;-81
2023/01/11 14:40:53;;;;;;;3.30;0.75;;;;;;;7.64;86.37;100689.47;9940180;29;20054;-80
2023/01/11 14:46:37;;;;;;;0.30;0.30;;;;;;;7.60;86.70;100683.28;9940647;29;20592;-80
2023/01/11 14:51:53;;;;;;;2.50;0.73;;;;;;;7.52;86.77;100685.69;9933085;29;20043;-80
2023/01/11 14:56:57;;;;;;;3.30;1.00;;;;;;;7.41;87.47;100681.88;9937966;29;20413;-80
2023/01/11 15:02:04;;;;;;;0.75;0.60;;;;;;;7.43;87.61;100685.41;9939485;29;20262;-80
2023/01/11 15:07:36;;;;;;;0.60;0.55;;;;;;;7.46;87.52;100682.91;9929961;29;20136;-80
2023/01/11 15:12:39;;;;;;;1.70;0.73;;;;;;;7.43;87.34;100674.97;9914887;29;20047;-80
2023/01/11 15:23:04;;;;;;;0.10;0.10;;;;;;;7.37;87.54;54145.69;9931185;29;20069;-80
2023/01/11 15:28:50;;;;;;;1.92;0.50;;;;;;;7.39;87.30;100673.16;9936835;29;20145;-81
2023/01/11 15:33:53;;;;;;;3.95;0.50;;;;;;;7.39;87.42;100674.03;9892829;29;20059;-82
2023/01/11 15:39:04;;;;;;;0.10;0.10;;;;;;;7.42;87.51;100678.47;9923139;29;20441;-82
2023/01/11 15:44:27;;;;;;;0.90;0.50;;;;;;;7.37;87.43;100682.63;9929153;29;20154;-81
2023/01/11 15:49:56;;;;;;;0.30;0.30;;;;;;;7.28;87.65;100690.19;9923013;29;20453;-81
2023/01/11 15:55:26;;;;;;;0.10;0.10;;;;;;;7.24;87.64;100687.50;9926777;29;20055;-81
2023/01/11 16:01:03;;;;;;;2.42;0.73;;;;;;;7.15;87.64;100694.19;9939088;29;20055;-81
2023/01/11 16:06:23;;;;;;;0.77;0.45;;;;;;;7.07;87.74;100693.91;9941844;29;20061;-85
2023/01/11 16:11:48;;;;;;;0.55;0.30;;;;;;;7.01;87.90;100699.84;9940286;29;20061;-85
2023/01/11 16:16:51;;;;;;;0.60;0.50;;;;;;;6.84;88.15;100696.72;9933483;29;20134;-85
2023/01/11 16:21:57;;;;;;;1.85;0.98;;;;;;;6.84;88.48;100708.84;9926137;29;20549;-86
2023/01/11 16:27:02;;;;;;;0.20;0.20;;;;;;;6.84;88.79;100695.84;9911995;29;20061;-85
2023/01/11 16:32:06;;;;;;;1.45;0.68;;;;;;;6.95;89.06;100706.56;9911428;29;20051;-85
2023/01/11 16:37:40;;;;;;;0.35;0.35;;;;;;;6.97;88.94;100704.91;9907439;29;20083;-85
2023/01/11 16:42:50;;;;;;;1.05;0.82;;;;;;;6.92;89.11;100706.47;9916076;29;20058;-84
2023/01/11 16:48:03;;;;;;;2.78;1.15;;;;;;;6.85;89.25;100711.50;9910424;29;20056;-84
2023/01/11 16:53:10;;;;;;;11.85;1.15;;;;;;;6.80;89.41;100720.00;9925854;29;20058;-84
2023/01/11 16:58:27;;;;;;;0.47;0.47;;;;;;;6.75;89.37;100711.19;9903987;29;20063;-85
2023/01/11 17:03:47;;;;;;;1.13;0.60;;;;;;;6.71;89.11;100702.38;9920994;29;20636;-85
2023/01/11 17:08:56;;;;;;;0.52;0.35;;;;;;;6.66;89.17;100720.44;9900711;29;20051;-86
2023/01/11 17:14:22;;;;;;;0.90;0.63;;;;;;;6.67;89.01;100722.22;9923786;29;20062;-84
2023/01/11 17:19:30;;;;;;;0.68;0.50;;;;;;;6.66;88.92;100729.97;9917734;29;20051;-89
2023/01/11 17:24:40;;;;;;;1.15;0.73;;;;;;;6.66;89.06;100737.78;9916579;29;20058;-85
2023/01/11 17:29:44;;;;;;;1.13;0.45;;;;;;;6.66;88.96;100736.06;9930712;29;20112;-85
2023/01/11 17:34:49;;;;;;;0.20;0.20;;;;;;;6.65;88.94;100739.50;9923281;29;20669;-86
2023/01/11 17:39:52;;;;;;;0.85;0.38;;;;;;;6.57;88.79;100740.97;9914562;29;20070;-86
2023/01/11 17:45:13;;;;;;;0.80;0.40;;;;;;;6.43;88.59;100750.06;9914634;29;20063;-86
2023/01/11 17:50:25;;;;;;;1.60;0.40;;;;;;;6.48;88.54;100751.94;9914146;29;20048;-85
2023/01/11 17:55:27;;;;;;;0.47;0.43;;;;;;;6.42;88.44;100751.75;9927913;29;20063;-88
2023/01/11 18:00:29;;;;;;;0.28;0.28;;;;;;;6.39;88.53;100749.03;9932355;29;20074;-87
2023/01/11 18:05:30;;;;;;;1.15;0.43;;;;;;;6.48;88.32;100741.53;9920325;29;20062;-85
2023/01/11 18:10:37;;;;;;;4.72;1.27;;;;;;;6.53;88.21;100731.28;9923626;29;20497;-85
2023/01/11 18:15:39;;;;;;;1.15;0.50;;;;;;;6.45;88.13;100719.75;9932957;29;20067;-84
2023/01/11 18:20:41;;;;;;;0.57;0.57;;;;;;;6.45;88.36;100724.97;9915374;29;20428;-85
2023/01/11 18:25:45;;;;;;;0.15;0.15;;;;;;;6.36;87.93;100725.53;9919726;29;20055;-85
2023/01/11 18:30:56;;;;;;;2.13;1.42;;;;;;;6.32;88.00;100713.25;9929719;29;20051;-85
2023/01/11 18:36:01;;;;;;;0.20;0.20;;;;;;;6.26;87.84;100713.06;9930145;29;20058;-85
2023/01/11 18:46:27;;;;;;;0.45;0.30;;;;;;;6.18;88.12;100684.19;9924335;29;20091;-84
2023/01/11 18:51:40;;;;;;;0.25;0.25;;;;;;;6.10;88.09;100691.75;9918230;29;20553;-84
2023/01/11 18:56:42;;;;;;;0.28;0.17;;;;;;;6.15;88.37;100687.56;9923948;29;20500;-85
2023/01/11 19:01:43;;;;;;;0.30;0.30;;;;;;;6.20;88.17;100677.34;9923852;29;20536;-86
2023/01/11 19:07:05;;;;;;;0.22;0.22;;;;;;;6.22;88.01;100680.88;9927244;29;20059;-85
2023/01/11 19:12:07;;;;;;;1.90;0.60;;;;;;;6.24;87.81;100683.53;9927794;29;20058;-84
2023/01/11 19:17:09;;;;;;;5.63;0.70;;;;;;;6.18;87.84;100689.41;9932555;29;20058;-84
2023/01/11 19:22:11;;;;;;;0.28;0.28;;;;;;;6.15;88.03;100684.97;9915692;29;20482;-85
2023/01/11 19:27:14;;;;;;;1.45;0.63;;;;;;;6.20;87.89;100682.56;9917991;29;20059;-85
2023/01/11 19:32:17;;;;;;;3.20;1.38;;;;;;;6.29;88.35;100672.44;9912032;29;20166;-85
2023/01/11 19:37:19;;;;;;;0.55;0.22;;;;;;;6.29;87.81;100650.75;9910279;29;20119;-85
2023/01/11 19:42:22;;;;;;;0.30;0.30;;;;;;;6.30;88.05;100637.78;9905233;29;20051;-85
2023/01/11 19:47:24;;;;;;;0.47;0.47;;;;;;;6.40;87.82;100628.56;9907494;29;20086;-85
2023/01/11 19:52:26;;;;;;;2.72;1.00;;;;;;;6.45;87.59;100627.00;9890127;29;20096;-85
2023/01/11 19:57:28;;;;;;;0.10;0.10;;;;;;;6.53;87.32;100604.72;9915025;29;20056;-85
2023/01/11 20:02:30;;;;;;;1.42;0.90;;;;;;;6.58;87.10;100603.97;9915357;29;20424;-87
2023/01/11 20:07:32;;;;;;;1.15;0.80;;;;;;;6.66;86.80;100607.69;9915685;29;20047;-85
2023/01/11 20:12:34;;;;;;;14.10;1.25;;;;;;;6.70;86.44;100597.41;9923376;29;20180;-88
2023/01/11 20:17:36;;;;;;;0.50;0.50;;;;;;;6.71;86.42;100587.88;9941114;29;20058;-86
2023/01/11 20:22:42;;;;;;;2.67;1.02;;;;;;;6.79;86.38;100580.31;9913371;29;20051;-84
2023/01/11 20:27:44;;;;;;;11.98;1.15;;;;;;;6.94;86.21;100572.06;9916228;29;20047;-84
2023/01/11 20:32:46;;;;;;;0.68;0.47;;;;;;;6.99;85.77;100567.88;9918351;29;20253;-85
2023/01/11 20:37:47;;;;;;;2.03;1.08;;;;;;;7.00;85.66;100559.22;9928762;29;20055;-84
2023/01/11 20:42:49;;;;;;;0.75;0.55;;;;;;;7.01;85.40;100545.34;9933620;29;20151;-84
2023/01/11 20:47:50;;;;;;;0.85;0.28;;;;;;;7.03;85.43;100546.28;9939372;29;20066;-85
2023/01/11 20:52:52;;;;;;;1.95;1.27;;;;;;;7.06;85.76;100533.34;9953186;29;20066;-84
2023/01/11 20:57:54;;;;;;;0.30;0.30;;;;;;;7.17;85.74;100538.84;9956960;29;20246;-83
2023/01/11 21:02:55;;;;;;;2.25;0.85;;;;;;;7.19;85.17;100531.94;9961178;29;20523;-83
2023/01/11 21:07:57;;;;;;;0.32;0.32;;;;;;;7.25;85.44;100534.72;9934977;29;20139;-85
2023/01/11 21:12:58;;;;;;;0.13;0.13;;;;;;;7.21;85.56;100531.16;9924159;29;20098;-84
2023/01/11 21:17:59;;;;;;;0.63;0.57;;;;;;;7.13;86.13;100524.88;9922131;29;20078;-86
2023/01/11 21:23:01;;;;;;;1.98;1.48;;;;;;;6.96;86.88;100527.00;9927988;29;20046;-88
2023/01/11 21:28:54;;;;;;;;;;;;;;;;;;;;;
2023/01/11 21:47:33;;;;;;;0.38;0.38;;;;;;;6.77;89.87;100499.59;10276087;24;20127;-88
2023/01/11 21:52:35;;;;;;;0.43;0.35;;;;;;;6.71;90.46;100512.41;9938900;29;20043;-84
2023/01/11 21:57:37;;;;;;;0.93;0.57;;;;;;;6.67;90.43;100482.84;9927679;29;20055;-84
2023/01/11 22:02:38;;;;;;;0.03;0.03;;;;;;;6.61;91.00;100476.59;9935377;29;20062;-84
2023/01/11 22:07:41;;;;;;;1.75;0.52;;;;;;;6.53;91.24;100474.66;9921626;29;20053;-84
2023/01/11 22:12:42;;;;;;;0.65;0.28;;;;;;;6.48;91.74;100467.53;9927665;29;20136;-85
2023/01/11 22:17:44;;;;;;;0.93;0.75;;;;;;;6.44;92.25;100478.69;9928142;29;20614;-85
2023/01/11 22:22:46;;;;;;;0.32;0.30;;;;;;;6.37;92.77;100482.84;9947624;29;20059;-85
2023/01/11 22:27:47;;;;;;;0.55;0.40;;;;;;;6.37;93.14;100472.44;9929845;29;20067;-83
2023/01/11 22:32:49;;;;;;;2.70;1.05;;;;;;;6.35;93.62;100466.28;9922677;29;20054;-84
2023/01/11 22:37:51;;;;;;;0.20;0.20;;;;;;;6.41;93.75;100463.91;9943920;29;20530;-84
2023/01/11 22:42:52;;;;;;;0.10;0.10;;;;;;;6.45;93.95;100447.50;9915501;29;20047;-85
2023/01/11 22:47:57;;;;;;;1.67;0.52;;;;;;;6.55;93.78;100440.88;9932687;29;20547;-85
2023/01/11 22:53:02;;;;;;;0.20;0.20;;;;;;;6.63;93.74;100443.69;9901028;29;20059;-86
2023/01/11 22:58:14;;;;;;;0.43;0.17;;;;;;;6.67;93.55;100455.94;9924753;29;20048;-87
2023/01/11 23:03:31;;;;;;;3.60;2.28;;;;;;;6.72;93.41;100444.81;9922159;29;20055;-87
2023/01/11 23:15:02;;;;;;;;;;;;;;;;;;;;;
2023/01/11 23:21:33;;;;;;;0.10;0.10;;;;;;;6.71;92.81;100442.16;10024961;24;20050;-88
